createdAt,value
2022-10-12T00:01:51.771Z,101421.41
2022-10-12T00:04:18.759Z,101420.88
2022-10-12T00:06:45.653Z,101423.91
2022-10-12T00:09:12.529Z,101418.69
2022-10-12T00:11:40.920Z,101413.56
2022-10-12T00:14:08.362Z,101407.66
2022-10-12T00:16:35.315Z,101417.31
2022-10-12T00:19:02.537Z,101421.34
2022-10-12T00:21:30.377Z,101421.31
2022-10-12T00:24:01.576Z,101418.69
2022-10-12T00:26:29.342Z,101409.63
2022-10-12T00:29:03.737Z,101412.91
2022-10-12T00:31:31.965Z,101412.31
2022-10-12T00:34:03.085Z,101409.81
2022-10-12T00:36:34.085Z,101407.00
2022-10-12T00:39:02.123Z,101406.78
2022-10-12T00:41:32.223Z,101402.78
2022-10-12T00:44:00.029Z,101400.38
2022-10-12T00:46:39.291Z,101403.53
2022-10-12T00:49:22.824Z,101395.13
2022-10-12T00:51:58.887Z,101400.94
2022-10-12T00:54:35.033Z,101403.72
2022-10-12T00:57:04.802Z,101398.44
2022-10-12T00:59:40.342Z,101395.59
2022-10-12T01:02:07.328Z,101403.44
2022-10-12T01:04:34.440Z,101396.41
2022-10-12T01:07:01.458Z,101395.72
2022-10-12T01:09:29.143Z,101405.13
2022-10-12T01:11:58.234Z,101394.59
2022-10-12T01:14:27.073Z,101389.84
2022-10-12T01:17:02.849Z,101391.50
2022-10-12T01:20:06.592Z,101398.19
2022-10-12T01:22:44.850Z,101399.28
2022-10-12T01:25:29.900Z,101399.69
2022-10-12T01:28:10.581Z,101394.94
2022-10-12T01:30:43.818Z,101389.28
2022-10-12T01:33:17.881Z,101389.97
2022-10-12T01:35:55.970Z,101395.63
2022-10-12T01:38:46.362Z,101393.84
2022-10-12T01:41:20.507Z,101394.66
2022-10-12T01:43:47.781Z,101390.38
2022-10-12T01:46:20.813Z,101394.75
2022-10-12T01:48:52.027Z,101391.72
2022-10-12T01:51:35.917Z,101393.00
2022-10-12T01:54:33.966Z,101390.75
2022-10-12T01:57:36.274Z,101394.72
2022-10-12T02:00:10.904Z,101406.28
2022-10-12T02:02:53.082Z,101400.03
2022-10-12T02:05:37.163Z,101403.88
2022-10-12T02:08:19.794Z,101402.75
2022-10-12T02:11:08.298Z,101408.25
2022-10-12T02:13:40.769Z,101405.31
2022-10-12T02:16:11.237Z,101402.66
2022-10-12T02:18:42.988Z,101407.81
2022-10-12T02:21:12.921Z,101407.44
2022-10-12T02:23:40.230Z,101408.25
2022-10-12T02:26:08.243Z,101409.38
2022-10-12T02:28:37.564Z,101406.78
2022-10-12T02:31:27.577Z,101406.69
2022-10-12T02:34:02.693Z,101411.38
2022-10-12T02:36:35.673Z,101413.59
2022-10-12T02:39:11.171Z,101410.97
2022-10-12T02:41:48.041Z,101420.34
2022-10-12T02:44:20.057Z,101412.16
2022-10-12T02:46:49.493Z,101416.38
2022-10-12T02:49:18.482Z,101422.84
2022-10-12T02:51:46.489Z,101422.25
2022-10-12T02:54:13.534Z,101417.81
2022-10-12T02:56:45.542Z,101422.28
2022-10-12T02:59:14.106Z,101417.91
2022-10-12T03:01:41.923Z,101421.81
2022-10-12T03:04:09.367Z,101414.22
2022-10-12T03:06:36.250Z,101419.28
2022-10-12T03:09:05.218Z,101420.72
2022-10-12T03:11:32.397Z,101426.44
2022-10-12T03:13:59.868Z,101423.13
2022-10-12T03:16:26.855Z,101418.69
2022-10-12T03:18:53.771Z,101419.28
2022-10-12T03:21:20.939Z,101418.44
2022-10-12T03:23:47.773Z,101419.06
2022-10-12T03:26:14.654Z,101413.72
2022-10-12T03:28:41.613Z,101413.03
2022-10-12T03:31:08.534Z,101403.00
2022-10-12T03:33:35.582Z,101403.84
2022-10-12T03:36:02.522Z,101411.38
2022-10-12T03:38:29.552Z,101409.59
2022-10-12T03:40:57.427Z,101402.06
2022-10-12T03:43:24.472Z,101406.72
2022-10-12T03:45:52.670Z,101414.66
2022-10-12T03:48:20.984Z,101418.03
2022-10-12T03:50:52.355Z,101422.22
2022-10-12T03:53:20.085Z,101428.97
2022-10-12T03:55:46.990Z,101427.91
2022-10-12T03:58:14.435Z,101429.34
2022-10-12T04:00:41.262Z,101434.25
2022-10-12T04:03:08.281Z,101436.81
2022-10-12T04:05:35.158Z,101432.97
2022-10-12T04:08:02.412Z,101434.59
2022-10-12T04:10:29.258Z,101433.19
2022-10-12T04:12:57.504Z,101435.16
2022-10-12T04:15:24.327Z,101431.78
2022-10-12T04:17:51.317Z,101424.28
2022-10-12T04:20:18.213Z,101427.34
2022-10-12T04:22:45.097Z,101432.69
2022-10-12T04:25:12.190Z,101431.69
2022-10-12T04:27:39.807Z,101435.41
2022-10-12T04:30:07.526Z,101437.88
2022-10-12T04:32:34.428Z,101431.25
2022-10-12T04:35:01.396Z,101424.03
2022-10-12T04:37:28.470Z,101425.38
2022-10-12T04:39:56.202Z,101419.84
2022-10-12T04:42:23.071Z,101423.13
2022-10-12T04:44:50.056Z,101431.00
2022-10-12T04:47:16.967Z,101429.84
2022-10-12T04:49:43.873Z,101423.16
2022-10-12T04:52:10.748Z,101422.84
2022-10-12T04:54:37.642Z,101429.75
2022-10-12T04:57:04.486Z,101423.00
2022-10-12T04:59:31.438Z,101436.81
2022-10-12T05:01:58.460Z,101434.56
2022-10-12T05:04:25.406Z,101440.13
2022-10-12T05:06:52.391Z,101442.09
2022-10-12T05:09:19.344Z,101445.13
2022-10-12T05:11:46.801Z,101450.09
2022-10-12T05:14:13.689Z,101450.09
2022-10-12T05:16:40.669Z,101449.66
2022-10-12T05:19:07.625Z,101457.53
2022-10-12T05:21:34.743Z,101458.19
2022-10-12T05:24:01.629Z,101461.81
2022-10-12T05:26:28.644Z,101463.81
2022-10-12T05:28:55.621Z,101467.38
2022-10-12T05:31:22.526Z,101463.91
2022-10-12T05:33:49.481Z,101465.97
2022-10-12T05:36:16.378Z,101480.31
2022-10-12T05:38:43.364Z,101477.88
2022-10-12T05:41:10.576Z,101489.34
2022-10-12T05:43:37.465Z,101494.59
2022-10-12T05:46:04.911Z,101496.59
2022-10-12T05:48:33.309Z,101493.91
2022-10-12T05:51:00.361Z,101495.63
2022-10-12T05:53:27.245Z,101500.34
2022-10-12T05:55:57.846Z,101505.38
2022-10-12T05:58:26.446Z,101504.25
2022-10-12T06:00:53.607Z,101512.41
2022-10-12T06:03:25.703Z,101512.31
2022-10-12T06:05:53.415Z,101512.34
2022-10-12T06:08:20.313Z,101514.03
2022-10-12T06:10:50.810Z,101517.88
2022-10-12T06:13:19.750Z,101513.53
2022-10-12T06:15:47.558Z,101521.75
2022-10-12T06:18:15.666Z,101510.00
2022-10-12T06:20:47.530Z,101512.47
2022-10-12T06:23:14.479Z,101520.81
2022-10-12T06:25:41.874Z,101513.59
2022-10-12T06:28:08.743Z,101510.94
2022-10-12T06:30:35.589Z,101523.78
2022-10-12T06:33:02.601Z,101521.97
2022-10-12T06:35:29.596Z,101522.06
2022-10-12T06:37:56.494Z,101525.75
2022-10-12T06:40:23.426Z,101521.13
2022-10-12T06:42:52.779Z,101518.19
2022-10-12T06:45:23.130Z,101516.69
2022-10-12T06:47:49.984Z,101519.34
2022-10-12T06:50:16.994Z,101521.97
2022-10-12T06:52:43.845Z,101523.19
2022-10-12T06:55:11.725Z,101522.53
2022-10-12T06:57:38.776Z,101514.72
2022-10-12T07:00:07.979Z,101517.00
2022-10-12T07:02:35.981Z,101516.09
2022-10-12T07:05:03.183Z,101513.19
2022-10-12T07:07:31.878Z,101514.38
2022-10-12T07:09:59.006Z,101519.03
2022-10-12T07:12:26.001Z,101522.84
2022-10-12T07:14:54.946Z,101524.75
2022-10-12T07:17:22.416Z,101523.03
2022-10-12T07:19:49.308Z,101512.72
2022-10-12T07:22:16.162Z,101520.44
2022-10-12T07:24:43.104Z,101524.09
2022-10-12T07:27:11.024Z,101516.69
2022-10-12T07:29:39.111Z,101522.31
2022-10-12T07:32:07.579Z,101525.22
2022-10-12T07:34:34.824Z,101532.03
2022-10-12T07:37:03.159Z,101529.47
2022-10-12T07:39:30.233Z,101528.53
2022-10-12T07:41:57.466Z,101527.19
2022-10-12T07:44:24.663Z,101532.97
2022-10-12T07:46:52.102Z,101523.25
2022-10-12T07:49:19.500Z,101533.78
2022-10-12T07:51:47.477Z,101538.13
2022-10-12T07:54:19.826Z,101533.72
2022-10-12T07:56:47.139Z,101529.16
2022-10-12T07:59:14.056Z,101531.19
2022-10-12T08:01:40.995Z,101529.91
2022-10-12T08:04:07.913Z,101528.50
2022-10-12T08:06:34.806Z,101536.44
2022-10-12T08:09:02.449Z,101533.91
2022-10-12T08:11:29.883Z,101531.78
2022-10-12T08:13:56.917Z,101527.81
2022-10-12T08:16:24.170Z,101539.66
2022-10-12T08:18:51.642Z,101532.59
2022-10-12T08:21:19.009Z,101532.09
2022-10-12T08:23:47.050Z,101527.50
2022-10-12T08:26:15.979Z,101537.19
2022-10-12T08:28:43.147Z,101533.34
2022-10-12T08:31:13.141Z,101535.78
2022-10-12T08:33:40.322Z,101531.34
2022-10-12T08:36:07.659Z,101527.53
2022-10-12T08:38:38.955Z,101528.50
2022-10-12T08:41:20.416Z,101527.31
2022-10-12T08:44:17.854Z,101528.91
2022-10-12T08:46:44.959Z,101532.47
2022-10-12T08:49:14.220Z,101527.09
2022-10-12T08:52:04.646Z,101532.47
2022-10-12T08:54:41.524Z,101534.28
2022-10-12T08:57:17.905Z,101529.38
2022-10-12T08:59:46.240Z,101517.56
2022-10-12T09:02:44.279Z,101530.91
2022-10-12T09:05:18.150Z,101528.88
2022-10-12T09:07:48.024Z,101525.63
2022-10-12T09:10:30.176Z,101526.13
2022-10-12T09:13:29.311Z,101541.03
2022-10-12T09:16:27.541Z,101539.38
2022-10-12T09:19:07.807Z,101530.34
2022-10-12T09:21:35.590Z,101537.31
2022-10-12T09:24:04.985Z,101533.66
2022-10-12T09:26:40.253Z,101541.47
2022-10-12T09:29:25.757Z,101531.84
2022-10-12T09:32:26.534Z,101527.03
2022-10-12T09:34:54.694Z,101533.81
2022-10-12T09:37:24.909Z,101533.91
2022-10-12T09:39:52.410Z,101525.94
2022-10-12T09:42:19.326Z,101537.53
2022-10-12T09:45:21.661Z,101530.75
2022-10-12T09:48:10.080Z,101524.19
2022-10-12T09:50:51.542Z,101525.97
2022-10-12T09:53:32.798Z,101525.09
2022-10-12T09:56:04.683Z,101530.06
2022-10-12T09:58:40.266Z,101517.63
2022-10-12T10:01:19.458Z,101507.88
2022-10-12T10:03:48.782Z,101513.38
2022-10-12T10:06:22.516Z,101509.09
2022-10-12T10:08:49.599Z,101506.06
2022-10-12T10:13:38.184Z,101509.38
2022-10-12T10:16:12.222Z,101499.94
2022-10-12T10:18:58.403Z,101505.75
2022-10-12T10:21:33.268Z,101492.53
2022-10-12T10:24:01.684Z,101505.09
2022-10-12T10:26:32.307Z,101492.84
2022-10-12T10:29:21.750Z,101496.81
2022-10-12T10:31:48.882Z,101500.34
2022-10-12T10:34:18.752Z,101503.16
2022-10-12T10:36:51.861Z,101493.09
2022-10-12T10:39:23.106Z,101502.91
2022-10-12T10:41:51.703Z,101491.44
2022-10-12T10:44:24.697Z,101490.63
2022-10-12T10:46:53.518Z,101493.28
2022-10-12T10:49:55.848Z,101487.91
2022-10-12T10:52:35.475Z,101487.69
2022-10-12T10:55:21.067Z,101501.31
2022-10-12T10:58:06.195Z,101495.16
2022-10-12T11:00:41.212Z,101482.78
2022-10-12T11:06:09.398Z,101482.81
2022-10-12T11:08:38.545Z,101476.25
2022-10-12T11:11:20.966Z,101473.56
2022-10-12T11:13:59.361Z,101472.22
2022-10-12T11:16:53.481Z,101472.03
2022-10-12T11:19:47.930Z,101476.19
2022-10-12T11:22:29.425Z,101472.63
2022-10-12T11:25:09.769Z,101479.78
2022-10-12T11:27:41.831Z,101481.44
2022-10-12T11:30:18.214Z,101478.94
2022-10-12T11:32:50.351Z,101471.13
2022-10-12T11:35:21.710Z,101475.75
2022-10-12T11:38:00.751Z,101482.50
2022-10-12T11:43:38.182Z,101471.78
2022-10-12T11:46:08.439Z,101476.22
2022-10-12T11:48:43.249Z,101480.94
2022-10-12T11:51:11.061Z,101478.91
2022-10-12T11:53:59.965Z,101477.94
2022-10-12T11:56:26.857Z,101467.38
2022-10-12T11:59:24.601Z,101475.09
2022-10-12T12:02:02.536Z,101464.38
2022-10-12T12:04:48.249Z,101479.28
2022-10-12T12:07:37.124Z,101472.16
2022-10-12T12:10:25.831Z,101478.06
2022-10-12T12:13:21.790Z,101473.09
2022-10-12T12:15:49.809Z,101466.56
2022-10-12T12:18:20.277Z,101458.56
2022-10-12T12:20:47.081Z,101456.44
2022-10-12T12:23:27.877Z,101461.13
2022-10-12T12:26:15.833Z,101467.03
2022-10-12T12:28:46.587Z,101469.75
2022-10-12T12:31:18.005Z,101463.06
2022-10-12T12:33:48.405Z,101460.75
2022-10-12T12:36:27.619Z,101452.31
2022-10-12T12:38:54.862Z,101465.03
2022-10-12T12:41:26.890Z,101453.16
2022-10-12T12:43:59.603Z,101462.09
2022-10-12T12:46:52.240Z,101462.53
2022-10-12T12:49:39.438Z,101463.66
2022-10-12T12:52:16.951Z,101462.63
2022-10-12T12:54:56.201Z,101464.91
2022-10-12T12:57:34.516Z,101469.59
2022-10-12T13:00:10.856Z,101466.38
2022-10-12T13:03:22.283Z,101458.19
2022-10-12T13:06:16.448Z,101461.44
2022-10-12T13:09:17.366Z,101459.97
2022-10-12T13:11:57.246Z,101462.69
2022-10-12T13:15:25.772Z,101459.34
2022-10-12T13:18:34.679Z,101461.66
2022-10-12T13:21:07.937Z,101463.59
2022-10-12T13:23:35.410Z,101469.13
2022-10-12T13:26:10.962Z,101474.00
2022-10-12T13:28:43.583Z,101467.97
2022-10-12T13:31:27.509Z,101470.75
2022-10-12T13:34:06.571Z,101462.34
2022-10-12T13:36:46.741Z,101477.72
2022-10-12T13:39:16.526Z,101481.38
2022-10-12T13:41:45.069Z,101476.03
2022-10-12T13:44:22.358Z,101482.44
2022-10-12T13:46:51.700Z,101480.81
2022-10-12T13:49:34.509Z,101479.47
2022-10-12T13:52:13.311Z,101478.28
2022-10-12T13:54:46.404Z,101485.63
2022-10-12T13:57:18.945Z,101466.84
2022-10-12T13:59:52.514Z,101473.19
2022-10-12T14:02:25.080Z,101475.28
2022-10-12T14:04:57.986Z,101458.97
2022-10-12T14:07:40.776Z,101462.91
2022-10-12T14:10:16.465Z,101464.81
2022-10-12T14:12:47.018Z,101454.78
2022-10-12T14:15:15.167Z,101463.47
2022-10-12T14:17:47.395Z,101457.47
2022-10-12T14:20:19.102Z,101451.69
2022-10-12T14:22:49.424Z,101456.63
2022-10-12T14:25:18.823Z,101455.09
2022-10-12T14:27:45.938Z,101454.41
2022-10-12T14:30:35.630Z,101460.94
2022-10-12T14:33:21.865Z,101460.72
2022-10-12T14:35:51.042Z,101464.38
2022-10-12T14:38:39.623Z,101459.97
2022-10-12T14:41:28.497Z,101467.94
2022-10-12T14:44:12.938Z,101460.09
2022-10-12T14:46:47.719Z,101468.16
2022-10-12T14:49:26.996Z,101464.88
2022-10-12T14:51:55.451Z,101464.13
2022-10-12T14:54:22.601Z,101470.31
2022-10-12T14:56:49.482Z,101469.16
2022-10-12T14:59:16.375Z,101472.44
2022-10-12T15:01:47.421Z,101471.34
2022-10-12T15:04:17.161Z,101471.91
2022-10-12T15:06:48.306Z,101477.00
2022-10-12T15:09:17.753Z,101476.19
2022-10-12T15:11:44.893Z,101472.31
2022-10-12T15:14:12.092Z,101479.38
2022-10-12T15:16:39.157Z,101477.72
2022-10-12T15:19:06.091Z,101489.66
2022-10-12T15:21:33.091Z,101482.50
2022-10-12T15:24:00.092Z,101487.00
2022-10-12T15:26:27.121Z,101488.44
2022-10-12T15:28:54.165Z,101484.31
2022-10-12T15:31:21.161Z,101488.34
2022-10-12T15:33:49.307Z,101487.34
2022-10-12T15:36:16.210Z,101483.00
2022-10-12T15:38:43.077Z,101497.72
2022-10-12T15:41:24.340Z,101486.94
2022-10-12T15:43:51.331Z,101493.97
2022-10-12T15:46:18.315Z,101501.44
2022-10-12T15:48:45.221Z,101504.84
2022-10-12T15:51:24.435Z,101509.44
2022-10-12T15:53:53.337Z,101508.66
2022-10-12T15:56:21.430Z,101508.03
2022-10-12T15:58:48.445Z,101510.22
2022-10-12T16:01:17.782Z,101515.16
2022-10-12T16:03:46.184Z,101509.56
2022-10-12T16:06:13.155Z,101514.13
2022-10-12T16:08:40.395Z,101512.88
2022-10-12T16:11:11.515Z,101519.19
2022-10-12T16:13:45.080Z,101526.47
2022-10-12T16:16:19.057Z,101531.03
2022-10-12T16:18:46.525Z,101531.69
2022-10-12T16:21:13.829Z,101525.06
2022-10-12T16:23:41.185Z,101527.81
2022-10-12T16:26:12.265Z,101533.06
2022-10-12T16:28:39.631Z,101536.06
2022-10-12T16:31:12.494Z,101535.19
2022-10-12T16:33:41.027Z,101531.41
2022-10-12T16:36:13.636Z,101537.28
2022-10-12T16:38:40.801Z,101539.97
2022-10-12T16:41:10.125Z,101534.84
2022-10-12T16:43:37.543Z,101536.03
2022-10-12T16:46:05.077Z,101528.59
2022-10-12T16:48:32.204Z,101531.22
2022-10-12T16:50:59.744Z,101521.38
2022-10-12T16:53:27.235Z,101532.47
2022-10-12T16:55:54.305Z,101535.13
2022-10-12T16:58:21.266Z,101539.25
2022-10-12T17:00:48.546Z,101536.16
2022-10-12T17:03:15.788Z,101544.91
2022-10-12T17:05:42.839Z,101539.81
2022-10-12T17:08:15.047Z,101535.72
2022-10-12T17:10:44.401Z,101536.25
2022-10-12T17:13:13.779Z,101534.69
2022-10-12T17:15:43.696Z,101533.22
2022-10-12T17:18:10.823Z,101536.63
2022-10-12T17:20:37.844Z,101536.47
2022-10-12T17:23:04.823Z,101543.91
2022-10-12T17:25:31.848Z,101544.03
2022-10-12T17:27:58.761Z,101538.03
2022-10-12T17:30:25.748Z,101536.19
2022-10-12T17:32:52.815Z,101546.69
2022-10-12T17:35:20.135Z,101539.72
2022-10-12T17:37:47.124Z,101549.84
2022-10-12T17:40:14.227Z,101541.66
2022-10-12T17:42:41.116Z,101550.22
2022-10-12T17:45:08.617Z,101551.53
2022-10-12T17:47:35.606Z,101541.97
2022-10-12T17:50:02.946Z,101546.25
2022-10-12T17:52:30.328Z,101548.13
2022-10-12T17:54:57.540Z,101549.13
2022-10-12T17:57:24.464Z,101557.34
2022-10-12T17:59:51.374Z,101553.00
2022-10-12T18:02:18.415Z,101559.13
2022-10-12T18:04:45.374Z,101558.78
2022-10-12T18:07:12.259Z,101560.22
2022-10-12T18:09:39.570Z,101562.25
2022-10-12T18:12:06.604Z,101559.53
2022-10-12T18:14:33.886Z,101561.75
2022-10-12T18:17:00.800Z,101562.72
2022-10-12T18:19:27.740Z,101560.19
2022-10-12T18:21:54.706Z,101555.81
2022-10-12T18:24:23.351Z,101555.38
2022-10-12T18:26:50.916Z,101552.75
2022-10-12T18:29:19.897Z,101551.56
2022-10-12T18:31:47.207Z,101557.34
2022-10-12T18:34:14.259Z,101552.47
2022-10-12T18:36:43.138Z,101556.47
2022-10-12T18:39:10.350Z,101557.19
2022-10-12T18:41:37.302Z,101552.88
2022-10-12T18:44:04.416Z,101555.34
2022-10-12T18:46:33.695Z,101559.34
2022-10-12T18:49:05.075Z,101557.78
2022-10-12T18:51:34.420Z,101549.41
2022-10-12T18:54:02.853Z,101548.53
2022-10-12T18:56:31.899Z,101552.97
2022-10-12T18:59:00.053Z,101552.22
2022-10-12T19:01:29.548Z,101551.22
2022-10-12T19:03:58.589Z,101550.19
2022-10-12T19:06:29.963Z,101555.03
2022-10-12T19:08:58.862Z,101554.19
2022-10-12T19:11:27.878Z,101553.94
2022-10-12T19:13:57.857Z,101553.22
2022-10-12T19:16:25.475Z,101551.25
2022-10-12T19:19:00.882Z,101551.38
2022-10-12T19:21:28.833Z,101548.63
2022-10-12T19:23:55.756Z,101546.84
2022-10-12T19:26:25.519Z,101551.47
2022-10-12T19:28:55.247Z,101550.19
2022-10-12T19:31:27.481Z,101547.63
2022-10-12T19:33:57.003Z,101546.19
2022-10-12T19:36:24.935Z,101548.41
2022-10-12T19:38:54.671Z,101546.25
2022-10-12T19:41:21.534Z,101533.44
2022-10-12T19:43:49.963Z,101539.78
2022-10-12T19:46:16.876Z,101544.56
2022-10-12T19:48:48.126Z,101546.25
2022-10-12T19:51:15.243Z,101546.44
2022-10-12T19:53:42.355Z,101548.34
2022-10-12T19:56:15.142Z,101540.03
2022-10-12T19:58:44.164Z,101542.69
2022-10-12T20:01:17.082Z,101546.91
2022-10-12T20:03:47.742Z,101552.25
2022-10-12T20:06:15.543Z,101553.91
2022-10-12T20:08:44.263Z,101546.81
2022-10-12T20:11:17.990Z,101546.41
2022-10-12T20:13:48.177Z,101547.97
2022-10-12T20:16:17.282Z,101540.25
2022-10-12T20:18:44.727Z,101535.84
2022-10-12T20:21:14.094Z,101542.19
2022-10-12T20:23:42.797Z,101539.56
2022-10-12T20:26:13.764Z,101540.69
2022-10-12T20:28:41.599Z,101533.56
2022-10-12T20:31:09.287Z,101535.31
2022-10-12T20:33:37.516Z,101529.03
2022-10-12T20:36:08.937Z,101534.47
2022-10-12T20:38:37.768Z,101536.19
2022-10-12T20:41:10.466Z,101534.47
2022-10-12T20:43:40.592Z,101538.97
2022-10-12T20:46:12.024Z,101531.06
2022-10-12T20:48:40.301Z,101534.56
2022-10-12T20:51:08.643Z,101532.56
2022-10-12T20:53:35.949Z,101530.00
2022-10-12T20:56:06.834Z,101528.16
2022-10-12T20:58:33.976Z,101534.34
2022-10-12T21:01:09.880Z,101537.91
2022-10-12T21:03:37.503Z,101539.81
2022-10-12T21:06:10.840Z,101539.78
2022-10-12T21:08:38.378Z,101539.06
2022-10-12T21:11:05.806Z,101540.88
2022-10-12T21:13:35.077Z,101544.34
2022-10-12T21:16:02.401Z,101543.69
2022-10-12T21:18:32.834Z,101543.63
2022-10-12T21:21:14.148Z,101548.00
2022-10-12T21:23:42.501Z,101535.59
2022-10-12T21:26:10.630Z,101540.97
2022-10-12T21:28:37.805Z,101539.97
2022-10-12T21:31:04.922Z,101546.97
2022-10-12T21:33:31.815Z,101541.66
2022-10-12T21:36:16.937Z,101536.56
2022-10-12T21:38:44.399Z,101536.44
2022-10-12T21:41:13.107Z,101540.94
2022-10-12T21:43:41.119Z,101541.69
2022-10-12T21:46:13.733Z,101534.47
2022-10-12T21:48:41.402Z,101535.50
2022-10-12T21:51:09.341Z,101542.66
2022-10-12T21:53:37.806Z,101533.81
2022-10-12T21:56:19.074Z,101529.41
2022-10-12T21:58:48.665Z,101531.91
2022-10-12T22:01:23.734Z,101530.34
2022-10-12T22:03:59.370Z,101524.22
2022-10-12T22:06:28.659Z,101522.28
2022-10-12T22:09:01.927Z,101516.91
2022-10-12T22:11:30.780Z,101520.66
2022-10-12T22:14:04.238Z,101517.84
2022-10-12T22:16:31.615Z,101520.53
2022-10-12T22:19:00.061Z,101525.78
2022-10-12T22:21:32.908Z,101511.72
2022-10-12T22:24:00.628Z,101516.09
2022-10-12T22:26:28.258Z,101515.28
2022-10-12T22:28:55.587Z,101515.13
2022-10-12T22:31:24.831Z,101524.09
2022-10-12T22:33:52.624Z,101513.56
2022-10-12T22:36:19.532Z,101513.47
2022-10-12T22:38:46.911Z,101509.06
2022-10-12T22:41:16.413Z,101509.00
2022-10-12T22:43:50.053Z,101509.97
2022-10-12T22:46:18.085Z,101517.13
2022-10-12T22:48:45.001Z,101512.72
2022-10-12T22:51:35.394Z,101509.28
2022-10-12T22:54:02.816Z,101509.06
2022-10-12T22:56:30.509Z,101507.44
2022-10-12T22:58:59.712Z,101504.69
2022-10-12T23:01:27.429Z,101514.25
2022-10-12T23:03:55.290Z,101511.78
2022-10-12T23:06:23.551Z,101515.22
2022-10-12T23:08:50.790Z,101514.25
2022-10-12T23:11:21.095Z,101506.22
2022-10-12T23:13:48.273Z,101515.44
2022-10-12T23:16:21.088Z,101508.69
2022-10-12T23:18:48.483Z,101520.53
2022-10-12T23:21:17.738Z,101518.09
2022-10-12T23:23:45.772Z,101512.75
2022-10-12T23:26:22.842Z,101513.50
2022-10-12T23:28:50.328Z,101512.66
2022-10-12T23:31:20.484Z,101514.53
2022-10-12T23:33:47.547Z,101515.44
2022-10-12T23:36:16.828Z,101518.22
2022-10-12T23:38:45.254Z,101509.53
2022-10-12T23:41:13.078Z,101511.41
2022-10-12T23:43:40.080Z,101506.88
2022-10-12T23:46:07.536Z,101518.25
2022-10-12T23:48:35.139Z,101508.63
2022-10-12T23:51:02.391Z,101508.75
2022-10-12T23:53:29.515Z,101513.00
2022-10-12T23:55:56.534Z,101514.03
2022-10-12T23:58:23.776Z,101509.63
